sensor_id;sensor_type;location;lat;lon;timestamp;pressure;altitude;pressure_sealevel;temperature;humidity
40794;BME280;26502;51.886;15.604;2023-05-03T00:00:16;101716.01;;;6.02;59.13
40794;BME280;26502;51.886;15.604;2023-05-03T00:05:42;101715.06;;;5.94;59.25
40794;BME280;26502;51.886;15.604;2023-05-03T00:10:48;101718.18;;;5.77;59.13
40794;BME280;26502;51.886;15.604;2023-05-03T00:15:55;101721.10;;;5.59;59.39
40794;BME280;26502;51.886;15.604;2023-05-03T00:21:01;101718.03;;;5.44;59.38
40794;BME280;26502;51.886;15.604;2023-05-03T00:26:08;101719.77;;;5.40;59.74
40794;BME280;26502;51.886;15.604;2023-05-03T00:31:16;101722.63;;;5.48;59.82
40794;BME280;26502;51.886;15.604;2023-05-03T00:36:23;101723.25;;;5.33;59.74
40794;BME280;26502;51.886;15.604;2023-05-03T00:41:32;101726.23;;;5.31;60.18
40794;BME280;26502;51.886;15.604;2023-05-03T00:46:38;101728.06;;;5.44;60.14
40794;BME280;26502;51.886;15.604;2023-05-03T00:51:45;101728.61;;;5.18;60.00
40794;BME280;26502;51.886;15.604;2023-05-03T00:56:52;101727.56;;;5.19;60.28
40794;BME280;26502;51.886;15.604;2023-05-03T01:01:59;101733.30;;;5.09;60.20
40794;BME280;26502;51.886;15.604;2023-05-03T01:07:14;101736.73;;;4.97;60.54
40794;BME280;26502;51.886;15.604;2023-05-03T01:12:43;101735.81;;;4.91;60.48
40794;BME280;26502;51.886;15.604;2023-05-03T01:18:00;101735.35;;;4.76;60.67
40794;BME280;26502;51.886;15.604;2023-05-03T01:23:13;101735.98;;;4.90;60.94
40794;BME280;26502;51.886;15.604;2023-05-03T01:28:20;101735.77;;;4.85;60.59
40794;BME280;26502;51.886;15.604;2023-05-03T01:33:32;101737.95;;;4.72;60.89
40794;BME280;26502;51.886;15.604;2023-05-03T01:38:43;101738.45;;;4.69;61.07
40794;BME280;26502;51.886;15.604;2023-05-03T01:43:49;101738.23;;;4.85;61.08
40794;BME280;26502;51.886;15.604;2023-05-03T01:48:57;101741.30;;;4.73;61.04
40794;BME280;26502;51.886;15.604;2023-05-03T01:54:05;101739.12;;;4.66;60.98
40794;BME280;26502;51.886;15.604;2023-05-03T01:59:12;101737.68;;;4.63;61.69
40794;BME280;26502;51.886;15.604;2023-05-03T02:04:19;101739.42;;;4.80;61.69
40794;BME280;26502;51.886;15.604;2023-05-03T02:09:25;101740.05;;;4.73;61.58
40794;BME280;26502;51.886;15.604;2023-05-03T02:14:33;101740.83;;;4.80;61.91
40794;BME280;26502;51.886;15.604;2023-05-03T02:19:40;101738.30;;;4.92;61.88
40794;BME280;26502;51.886;15.604;2023-05-03T02:24:46;101735.62;;;4.88;62.04
40794;BME280;26502;51.886;15.604;2023-05-03T02:29:53;101734.24;;;4.93;61.93
40794;BME280;26502;51.886;15.604;2023-05-03T02:35:01;101732.88;;;4.76;62.09
40794;BME280;26502;51.886;15.604;2023-05-03T02:40:09;101734.58;;;4.90;62.34
40794;BME280;26502;51.886;15.604;2023-05-03T02:45:15;101736.79;;;4.80;62.28
40794;BME280;26502;51.886;15.604;2023-05-03T02:50:22;101738.20;;;4.79;62.38
40794;BME280;26502;51.886;15.604;2023-05-03T02:55:29;101743.73;;;4.69;62.36
40794;BME280;26502;51.886;15.604;2023-05-03T03:00:35;101747.77;;;4.70;62.65
40794;BME280;26502;51.886;15.604;2023-05-03T03:05:42;101753.95;;;4.72;62.73
40794;BME280;26502;51.886;15.604;2023-05-03T03:10:48;101749.00;;;4.68;62.73
40794;BME280;26502;51.886;15.604;2023-05-03T03:15:54;101749.63;;;4.60;62.86
40794;BME280;26502;51.886;15.604;2023-05-03T03:21:01;101749.66;;;4.63;63.24
40794;BME280;26502;51.886;15.604;2023-05-03T03:26:08;101758.65;;;4.65;63.33
40794;BME280;26502;51.886;15.604;2023-05-03T03:31:14;101756.64;;;4.78;63.46
40794;BME280;26502;51.886;15.604;2023-05-03T03:36:22;101757.22;;;4.82;63.39
40794;BME280;26502;51.886;15.604;2023-05-03T03:41:29;101763.85;;;4.77;63.43
40794;BME280;26502;51.886;15.604;2023-05-03T03:46:36;101767.45;;;4.86;63.73
40794;BME280;26502;51.886;15.604;2023-05-03T03:51:42;101772.23;;;4.89;63.45
40794;BME280;26502;51.886;15.604;2023-05-03T03:56:49;101774.23;;;4.94;63.81
40794;BME280;26502;51.886;15.604;2023-05-03T04:01:57;101782.48;;;4.93;63.51
40794;BME280;26502;51.886;15.604;2023-05-03T04:07:03;101780.48;;;4.86;63.73
40794;BME280;26502;51.886;15.604;2023-05-03T04:12:10;101791.44;;;4.91;63.83
40794;BME280;26502;51.886;15.604;2023-05-03T04:17:17;101801.92;;;4.82;63.81
40794;BME280;26502;51.886;15.604;2023-05-03T04:22:23;101812.23;;;4.75;64.16
40794;BME280;26502;51.886;15.604;2023-05-03T04:27:30;101815.19;;;4.89;64.31
40794;BME280;26502;51.886;15.604;2023-05-03T04:32:36;101822.90;;;4.85;64.17
40794;BME280;26502;51.886;15.604;2023-05-03T04:37:47;101827.10;;;4.83;64.54
40794;BME280;26502;51.886;15.604;2023-05-03T04:42:56;101831.96;;;4.94;64.66
40794;BME280;26502;51.886;15.604;2023-05-03T04:48:03;101837.89;;;5.08;64.77
40794;BME280;26502;51.886;15.604;2023-05-03T04:53:09;101839.66;;;5.32;65.08
40794;BME280;26502;51.886;15.604;2023-05-03T04:58:19;101843.61;;;5.64;64.66
40794;BME280;26502;51.886;15.604;2023-05-03T05:03:25;101846.39;;;5.58;64.88
40794;BME280;26502;51.886;15.604;2023-05-03T05:08:32;101849.14;;;5.74;65.00
40794;BME280;26502;51.886;15.604;2023-05-03T05:13:39;101846.67;;;5.77;64.81
40794;BME280;26502;51.886;15.604;2023-05-03T05:18:45;101853.19;;;5.74;65.02
40794;BME280;26502;51.886;15.604;2023-05-03T05:23:53;101854.73;;;5.93;65.29
40794;BME280;26502;51.886;15.604;2023-05-03T05:28:59;101856.45;;;6.16;65.59
40794;BME280;26502;51.886;15.604;2023-05-03T05:34:05;101856.74;;;6.44;65.56
40794;BME280;26502;51.886;15.604;2023-05-03T05:39:13;101860.02;;;6.87;65.64
40794;BME280;26502;51.886;15.604;2023-05-03T05:44:19;101862.36;;;7.14;65.20
40794;BME280;26502;51.886;15.604;2023-05-03T05:49:26;101864.30;;;7.21;64.96
40794;BME280;26502;51.886;15.604;2023-05-03T05:54:34;101870.84;;;7.46;64.74
40794;BME280;26502;51.886;15.604;2023-05-03T05:59:40;101877.88;;;7.81;64.13
40794;BME280;26502;51.886;15.604;2023-05-03T06:04:47;101875.64;;;8.22;63.67
40794;BME280;26502;51.886;15.604;2023-05-03T06:09:54;101878.00;;;8.58;63.08
40794;BME280;26502;51.886;15.604;2023-05-03T06:15:01;101878.59;;;8.81;62.41
40794;BME280;26502;51.886;15.604;2023-05-03T06:20:12;101882.38;;;8.99;62.13
40794;BME280;26502;51.886;15.604;2023-05-03T06:25:21;101884.38;;;9.18;61.71
40794;BME280;26502;51.886;15.604;2023-05-03T06:30:29;101886.04;;;9.33;61.09
40794;BME280;26502;51.886;15.604;2023-05-03T06:35:40;101884.55;;;9.41;60.62
40794;BME280;26502;51.886;15.604;2023-05-03T06:40:47;101886.06;;;9.51;60.28
40794;BME280;26502;51.886;15.604;2023-05-03T06:45:54;101883.58;;;9.71;60.06
40794;BME280;26502;51.886;15.604;2023-05-03T06:51:01;101882.13;;;9.91;59.51
40794;BME280;26502;51.886;15.604;2023-05-03T06:56:09;101884.92;;;10.12;59.12
40794;BME280;26502;51.886;15.604;2023-05-03T07:01:15;101886.45;;;10.35;58.66
40794;BME280;26502;51.886;15.604;2023-05-03T07:06:24;101884.02;;;10.60;58.32
40794;BME280;26502;51.886;15.604;2023-05-03T07:11:30;101890.39;;;10.75;57.75
40794;BME280;26502;51.886;15.604;2023-05-03T07:16:38;101892.33;;;10.89;57.16
40794;BME280;26502;51.886;15.604;2023-05-03T07:21:44;101893.67;;;11.05;56.69
40794;BME280;26502;51.886;15.604;2023-05-03T07:26:51;101892.48;;;11.14;56.41
40794;BME280;26502;51.886;15.604;2023-05-03T07:31:58;101893.59;;;11.23;55.61
40794;BME280;26502;51.886;15.604;2023-05-03T07:37:04;101892.91;;;11.32;55.08
40794;BME280;26502;51.886;15.604;2023-05-03T07:42:11;101892.05;;;11.52;54.39
40794;BME280;26502;51.886;15.604;2023-05-03T07:47:18;101889.33;;;11.65;54.26
40794;BME280;26502;51.886;15.604;2023-05-03T07:52:25;101887.84;;;11.89;53.67
40794;BME280;26502;51.886;15.604;2023-05-03T07:57:31;101889.58;;;12.02;52.98
40794;BME280;26502;51.886;15.604;2023-05-03T08:02:37;101896.20;;;11.89;51.84
40794;BME280;26502;51.886;15.604;2023-05-03T08:07:44;101899.56;;;11.80;51.33
40794;BME280;26502;51.886;15.604;2023-05-03T08:12:51;101892.60;;;11.62;50.27
40794;BME280;26502;51.886;15.604;2023-05-03T08:17:58;101886.56;;;12.00;50.32
40794;BME280;26502;51.886;15.604;2023-05-03T08:23:04;101883.90;;;12.01;49.85
40794;BME280;26502;51.886;15.604;2023-05-03T08:28:11;101875.38;;;12.27;49.44
40794;BME280;26502;51.886;15.604;2023-05-03T08:33:18;101875.92;;;12.17;48.67
40794;BME280;26502;51.886;15.604;2023-05-03T08:38:26;101875.55;;;12.00;48.42
40794;BME280;26502;51.886;15.604;2023-05-03T08:43:34;101881.63;;;11.78;46.97
40794;BME280;26502;51.886;15.604;2023-05-03T08:48:45;101885.21;;;11.67;47.75
40794;BME280;26502;51.886;15.604;2023-05-03T08:53:52;101887.98;;;11.81;48.06
40794;BME280;26502;51.886;15.604;2023-05-03T08:58:59;101882.73;;;12.15;47.57
40794;BME280;26502;51.886;15.604;2023-05-03T09:04:11;101882.11;;;12.37;47.17
40794;BME280;26502;51.886;15.604;2023-05-03T09:09:31;101879.69;;;12.84;46.70
40794;BME280;26502;51.886;15.604;2023-05-03T09:14:41;101888.11;;;12.40;45.32
40794;BME280;26502;51.886;15.604;2023-05-03T09:19:54;101879.76;;;12.22;46.05
40794;BME280;26502;51.886;15.604;2023-05-03T09:25:01;101884.06;;;12.55;46.20
40794;BME280;26502;51.886;15.604;2023-05-03T09:30:19;101880.77;;;12.75;45.85
40794;BME280;26502;51.886;15.604;2023-05-03T09:35:25;101876.51;;;12.98;44.92
40794;BME280;26502;51.886;15.604;2023-05-03T09:40:33;101870.86;;;13.26;45.18
40794;BME280;26502;51.886;15.604;2023-05-03T09:45:50;101872.11;;;13.62;44.35
40794;BME280;26502;51.886;15.604;2023-05-03T09:50:57;101869.04;;;13.97;44.07
40794;BME280;26502;51.886;15.604;2023-05-03T09:56:05;101871.25;;;13.54;43.42
40794;BME280;26502;51.886;15.604;2023-05-03T10:01:14;101871.62;;;13.31;42.78
40794;BME280;26502;51.886;15.604;2023-05-03T10:06:29;101867.42;;;13.20;43.44
40794;BME280;26502;51.886;15.604;2023-05-03T10:11:36;101860.41;;;13.73;43.53
40794;BME280;26502;51.886;15.604;2023-05-03T10:16:45;101856.90;;;14.22;42.98
40794;BME280;26502;51.886;15.604;2023-05-03T10:22:01;101842.70;;;14.43;42.89
40794;BME280;26502;51.886;15.604;2023-05-03T10:27:10;101834.23;;;14.86;42.58
40794;BME280;26502;51.886;15.604;2023-05-03T10:32:33;101838.67;;;14.99;41.54
40794;BME280;26502;51.886;15.604;2023-05-03T10:37:41;101838.09;;;14.54;40.98
40794;BME280;26502;51.886;15.604;2023-05-03T10:42:50;101834.66;;;14.67;40.92
40794;BME280;26502;51.886;15.604;2023-05-03T10:48:17;101831.77;;;14.86;40.90
40794;BME280;26502;51.886;15.604;2023-05-03T10:53:39;101831.52;;;15.37;40.63
40794;BME280;26502;51.886;15.604;2023-05-03T10:58:48;101829.33;;;15.59;40.43
40794;BME280;26502;51.886;15.604;2023-05-03T11:04:04;101825.48;;;15.72;40.07
40794;BME280;26502;51.886;15.604;2023-05-03T11:09:13;101825.74;;;15.54;39.47
40794;BME280;26502;51.886;15.604;2023-05-03T11:14:19;101823.88;;;15.35;38.92
40794;BME280;26502;51.886;15.604;2023-05-03T11:19:27;101827.40;;;15.53;39.08
40794;BME280;26502;51.886;15.604;2023-05-03T11:24:33;101817.83;;;16.20;38.94
40794;BME280;26502;51.886;15.604;2023-05-03T11:29:39;101820.23;;;16.37;38.72
40794;BME280;26502;51.886;15.604;2023-05-03T11:34:46;101819.42;;;16.44;38.63
40794;BME280;26502;51.886;15.604;2023-05-03T11:39:52;101824.61;;;16.48;38.18
40794;BME280;26502;51.886;15.604;2023-05-03T11:45:00;101820.98;;;16.36;38.04
40794;BME280;26502;51.886;15.604;2023-05-03T11:50:09;101810.72;;;16.28;37.61
40794;BME280;26502;51.886;15.604;2023-05-03T11:55:20;101803.79;;;16.81;37.11
40794;BME280;26502;51.886;15.604;2023-05-03T12:00:27;101808.60;;;17.13;36.98
40794;BME280;26502;51.886;15.604;2023-05-03T12:05:34;101802.85;;;17.64;36.83
40794;BME280;26502;51.886;15.604;2023-05-03T12:10:41;101807.17;;;18.08;36.70
40794;BME280;26502;51.886;15.604;2023-05-03T12:15:57;101808.79;;;17.83;34.34
40794;BME280;26502;51.886;15.604;2023-05-03T12:21:04;101803.77;;;16.86;33.81
40794;BME280;26502;51.886;15.604;2023-05-03T12:26:11;101799.57;;;17.44;34.42
40794;BME280;26502;51.886;15.604;2023-05-03T12:31:18;101796.80;;;18.11;34.71
40794;BME280;26502;51.886;15.604;2023-05-03T12:36:24;101789.92;;;18.19;34.27
40794;BME280;26502;51.886;15.604;2023-05-03T12:41:31;101798.66;;;17.85;34.44
40794;BME280;26502;51.886;15.604;2023-05-03T12:46:38;101796.38;;;17.68;34.56
40794;BME280;26502;51.886;15.604;2023-05-03T12:51:44;101790.09;;;17.92;34.27
40794;BME280;26502;51.886;15.604;2023-05-03T12:56:51;101783.80;;;18.50;34.51
40794;BME280;26502;51.886;15.604;2023-05-03T13:01:58;101773.93;;;18.87;33.91
40794;BME280;26502;51.886;15.604;2023-05-03T13:07:05;101770.88;;;19.19;34.00
40794;BME280;26502;51.886;15.604;2023-05-03T13:12:13;101769.08;;;19.40;33.01
40794;BME280;26502;51.886;15.604;2023-05-03T13:17:21;101764.55;;;19.44;33.00
40794;BME280;26502;51.886;15.604;2023-05-03T13:22:28;101762.33;;;19.49;32.77
40794;BME280;26502;51.886;15.604;2023-05-03T13:27:35;101763.45;;;18.98;32.76
40794;BME280;26502;51.886;15.604;2023-05-03T13:32:42;101758.59;;;18.88;32.92
40794;BME280;26502;51.886;15.604;2023-05-03T13:37:48;101751.42;;;19.30;32.80
40794;BME280;26502;51.886;15.604;2023-05-03T13:42:54;101747.58;;;19.89;32.70
40794;BME280;26502;51.886;15.604;2023-05-03T13:48:00;101741.05;;;20.29;32.45
40794;BME280;26502;51.886;15.604;2023-05-03T13:53:07;101734.80;;;20.63;32.06
40794;BME280;26502;51.886;15.604;2023-05-03T13:58:13;101730.70;;;20.59;31.75
40794;BME280;26502;51.886;15.604;2023-05-03T14:03:21;101727.83;;;20.65;31.74
40794;BME280;26502;51.886;15.604;2023-05-03T14:08:27;101721.71;;;20.42;31.35
40794;BME280;26502;51.886;15.604;2023-05-03T14:13:34;101725.30;;;20.68;30.77
40794;BME280;26502;51.886;15.604;2023-05-03T14:18:40;101724.46;;;19.89;30.19
40794;BME280;26502;51.886;15.604;2023-05-03T14:23:47;101721.27;;;20.12;30.67
40794;BME280;26502;51.886;15.604;2023-05-03T14:28:54;101718.89;;;20.70;30.58
40794;BME280;26502;51.886;15.604;2023-05-03T14:34:00;101715.84;;;21.15;30.11
40794;BME280;26502;51.886;15.604;2023-05-03T14:39:07;101715.10;;;20.76;29.68
40794;BME280;26502;51.886;15.604;2023-05-03T14:44:14;101718.75;;;20.66;29.60
40794;BME280;26502;51.886;15.604;2023-05-03T14:49:22;101720.82;;;20.58;29.59
40794;BME280;26502;51.886;15.604;2023-05-03T14:54:29;101721.66;;;20.62;29.63
40794;BME280;26502;51.886;15.604;2023-05-03T14:59:36;101719.41;;;20.54;29.64
40794;BME280;26502;51.886;15.604;2023-05-03T15:04:42;101711.59;;;20.77;29.47
40794;BME280;26502;51.886;15.604;2023-05-03T15:09:48;101716.40;;;20.84;29.42
40794;BME280;26502;51.886;15.604;2023-05-03T15:14:55;101718.64;;;20.83;29.43
40794;BME280;26502;51.886;15.604;2023-05-03T15:20:02;101717.23;;;20.79;29.42
40794;BME280;26502;51.886;15.604;2023-05-03T15:25:10;101718.33;;;20.35;29.24
40794;BME280;26502;51.886;15.604;2023-05-03T15:30:17;101721.38;;;19.73;29.28
40794;BME280;26502;51.886;15.604;2023-05-03T15:35:23;101717.89;;;19.20;29.58
40794;BME280;26502;51.886;15.604;2023-05-03T15:40:31;101719.07;;;18.72;29.85
40794;BME280;26502;51.886;15.604;2023-05-03T15:45:37;101717.52;;;18.70;29.95
40794;BME280;26502;51.886;15.604;2023-05-03T15:50:43;101712.48;;;18.52;29.88
40794;BME280;26502;51.886;15.604;2023-05-03T15:55:50;101711.01;;;18.89;30.16
40794;BME280;26502;51.886;15.604;2023-05-03T16:00:59;101711.56;;;19.41;30.13
40794;BME280;26502;51.886;15.604;2023-05-03T16:06:06;101712.64;;;19.61;29.93
40794;BME280;26502;51.886;15.604;2023-05-03T16:11:13;101708.92;;;19.80;29.85
40794;BME280;26502;51.886;15.604;2023-05-03T16:16:19;101703.44;;;19.95;29.81
40794;BME280;26502;51.886;15.604;2023-05-03T16:21:25;101698.52;;;19.73;29.65
40794;BME280;26502;51.886;15.604;2023-05-03T16:26:31;101702.33;;;19.45;29.87
40794;BME280;26502;51.886;15.604;2023-05-03T16:31:38;101698.25;;;19.37;29.73
40794;BME280;26502;51.886;15.604;2023-05-03T16:36:44;101692.92;;;19.08;29.44
40794;BME280;26502;51.886;15.604;2023-05-03T16:41:51;101688.08;;;18.72;29.86
40794;BME280;26502;51.886;15.604;2023-05-03T16:46:57;101688.17;;;18.63;29.87
40794;BME280;26502;51.886;15.604;2023-05-03T16:52:04;101690.63;;;18.39;30.03
40794;BME280;26502;51.886;15.604;2023-05-03T16:57:11;101687.96;;;18.01;30.30
40794;BME280;26502;51.886;15.604;2023-05-03T17:02:18;101680.78;;;17.62;30.26
40794;BME280;26502;51.886;15.604;2023-05-03T17:07:25;101686.17;;;17.42;30.48
40794;BME280;26502;51.886;15.604;2023-05-03T17:12:31;101685.58;;;17.31;30.95
40794;BME280;26502;51.886;15.604;2023-05-03T17:17:37;101689.53;;;17.19;31.29
40794;BME280;26502;51.886;15.604;2023-05-03T17:22:44;101693.27;;;16.99;31.40
40794;BME280;26502;51.886;15.604;2023-05-03T17:27:50;101701.73;;;16.72;31.41
40794;BME280;26502;51.886;15.604;2023-05-03T17:32:56;101700.20;;;16.52;31.67
40794;BME280;26502;51.886;15.604;2023-05-03T17:38:02;101699.09;;;16.31;31.94
40794;BME280;26502;51.886;15.604;2023-05-03T17:43:09;101704.69;;;16.12;32.51
40794;BME280;26502;51.886;15.604;2023-05-03T17:48:16;101707.29;;;15.96;32.57
40794;BME280;26502;51.886;15.604;2023-05-03T17:53:24;101714.19;;;15.74;33.07
40794;BME280;26502;51.886;15.604;2023-05-03T17:58:30;101710.42;;;15.55;33.64
40794;BME280;26502;51.886;15.604;2023-05-03T18:03:36;101716.40;;;15.32;33.83
40794;BME280;26502;51.886;15.604;2023-05-03T18:08:42;101712.33;;;15.17;34.39
40794;BME280;26502;51.886;15.604;2023-05-03T18:13:49;101713.52;;;15.03;34.86
40794;BME280;26502;51.886;15.604;2023-05-03T18:18:55;101722.45;;;14.92;35.13
40794;BME280;26502;51.886;15.604;2023-05-03T18:24:01;101722.90;;;14.73;35.39
40794;BME280;26502;51.886;15.604;2023-05-03T18:29:08;101724.20;;;14.55;35.94
40794;BME280;26502;51.886;15.604;2023-05-03T18:34:15;101723.11;;;14.44;36.07
40794;BME280;26502;51.886;15.604;2023-05-03T18:39:21;101728.31;;;14.20;36.29
40794;BME280;26502;51.886;15.604;2023-05-03T18:44:28;101728.72;;;13.95;36.51
40794;BME280;26502;51.886;15.604;2023-05-03T18:49:35;101734.59;;;13.59;37.01
40794;BME280;26502;51.886;15.604;2023-05-03T18:54:41;101731.75;;;13.17;37.25
40794;BME280;26502;51.886;15.604;2023-05-03T18:59:48;101734.64;;;13.09;37.86
40794;BME280;26502;51.886;15.604;2023-05-03T19:04:54;101736.98;;;13.08;37.87
40794;BME280;26502;51.886;15.604;2023-05-03T19:10:00;101736.87;;;12.77;38.40
40794;BME280;26502;51.886;15.604;2023-05-03T19:15:07;101741.00;;;12.61;38.64
40794;BME280;26502;51.886;15.604;2023-05-03T19:20:15;101744.71;;;12.48;38.67
40794;BME280;26502;51.886;15.604;2023-05-03T19:25:21;101746.88;;;12.15;39.11
40794;BME280;26502;51.886;15.604;2023-05-03T19:30:30;101755.34;;;11.83;39.59
40794;BME280;26502;51.886;15.604;2023-05-03T19:35:39;101754.45;;;11.56;39.89
40794;BME280;26502;51.886;15.604;2023-05-03T19:40:55;101757.09;;;11.29;40.24
40794;BME280;26502;51.886;15.604;2023-05-03T19:46:01;101757.32;;;11.06;40.57
40794;BME280;26502;51.886;15.604;2023-05-03T19:51:13;101759.89;;;11.01;40.94
40794;BME280;26502;51.886;15.604;2023-05-03T19:56:19;101760.61;;;11.01;41.23
40794;BME280;26502;51.886;15.604;2023-05-03T20:01:25;101764.32;;;10.81;41.43
40794;BME280;26502;51.886;15.604;2023-05-03T20:06:34;101760.65;;;10.66;41.86
40794;BME280;26502;51.886;15.604;2023-05-03T20:11:41;101761.23;;;10.48;42.08
40794;BME280;26502;51.886;15.604;2023-05-03T20:16:47;101760.05;;;10.33;42.19
40794;BME280;26502;51.886;15.604;2023-05-03T20:21:54;101764.02;;;10.15;42.52
40794;BME280;26502;51.886;15.604;2023-05-03T20:27:00;101768.20;;;10.05;42.86
40794;BME280;26502;51.886;15.604;2023-05-03T20:32:08;101764.28;;;9.93;43.01
40794;BME280;26502;51.886;15.604;2023-05-03T20:37:15;101771.29;;;9.87;43.24
40794;BME280;26502;51.886;15.604;2023-05-03T20:42:21;101767.08;;;9.67;43.39
40794;BME280;26502;51.886;15.604;2023-05-03T20:47:27;101769.94;;;9.47;43.69
40794;BME280;26502;51.886;15.604;2023-05-03T20:52:33;101775.39;;;9.35;43.82
40794;BME280;26502;51.886;15.604;2023-05-03T20:57:42;101779.09;;;9.17;44.20
40794;BME280;26502;51.886;15.604;2023-05-03T21:02:49;101782.55;;;9.08;44.51
40794;BME280;26502;51.886;15.604;2023-05-03T21:07:58;101776.34;;;9.09;44.63
40794;BME280;26502;51.886;15.604;2023-05-03T21:13:05;101775.33;;;9.03;44.68
40794;BME280;26502;51.886;15.604;2023-05-03T21:18:11;101776.52;;;8.88;44.97
40794;BME280;26502;51.886;15.604;2023-05-03T21:23:18;101776.40;;;8.78;45.15
40794;BME280;26502;51.886;15.604;2023-05-03T21:28:24;101769.10;;;8.58;45.24
40794;BME280;26502;51.886;15.604;2023-05-03T21:33:31;101763.13;;;8.17;45.49
40794;BME280;26502;51.886;15.604;2023-05-03T21:38:37;101757.98;;;7.79;45.97
40794;BME280;26502;51.886;15.604;2023-05-03T21:43:43;101759.63;;;7.65;46.45
40794;BME280;26502;51.886;15.604;2023-05-03T21:48:50;101762.98;;;7.65;46.73
40794;BME280;26502;51.886;15.604;2023-05-03T21:53:56;101767.41;;;7.64;46.93
40794;BME280;26502;51.886;15.604;2023-05-03T21:59:04;101760.32;;;7.68;47.08
40794;BME280;26502;51.886;15.604;2023-05-03T22:04:11;101762.09;;;7.67;47.21
40794;BME280;26502;51.886;15.604;2023-05-03T22:09:18;101760.73;;;7.50;47.23
40794;BME280;26502;51.886;15.604;2023-05-03T22:14:25;101759.69;;;7.42;47.57
40794;BME280;26502;51.886;15.604;2023-05-03T22:19:34;101758.99;;;7.32;47.83
40794;BME280;26502;51.886;15.604;2023-05-03T22:24:41;101762.38;;;7.21;47.95
40794;BME280;26502;51.886;15.604;2023-05-03T22:29:47;101763.80;;;7.06;48.13
40794;BME280;26502;51.886;15.604;2023-05-03T22:34:54;101760.95;;;6.99;48.45
40794;BME280;26502;51.886;15.604;2023-05-03T22:40:00;101755.67;;;6.92;48.49
40794;BME280;26502;51.886;15.604;2023-05-03T22:45:08;101751.78;;;6.77;48.70
40794;BME280;26502;51.886;15.604;2023-05-03T22:50:16;101756.02;;;6.61;48.91
40794;BME280;26502;51.886;15.604;2023-05-03T22:55:22;101756.17;;;6.58;49.15
40794;BME280;26502;51.886;15.604;2023-05-03T23:00:29;101755.29;;;6.51;49.30
40794;BME280;26502;51.886;15.604;2023-05-03T23:05:35;101751.21;;;6.43;49.58
40794;BME280;26502;51.886;15.604;2023-05-03T23:10:41;101751.56;;;6.44;49.79
40794;BME280;26502;51.886;15.604;2023-05-03T23:15:48;101752.79;;;6.40;49.97
40794;BME280;26502;51.886;15.604;2023-05-03T23:20:54;101752.61;;;6.35;50.04
40794;BME280;26502;51.886;15.604;2023-05-03T23:26:00;101750.09;;;6.22;50.12
40794;BME280;26502;51.886;15.604;2023-05-03T23:31:07;101748.64;;;6.05;50.35
40794;BME280;26502;51.886;15.604;2023-05-03T23:36:13;101745.95;;;5.94;50.45
40794;BME280;26502;51.886;15.604;2023-05-03T23:41:20;101743.55;;;5.75;50.75
40794;BME280;26502;51.886;15.604;2023-05-03T23:46:26;101744.54;;;5.60;50.91
40794;BME280;26502;51.886;15.604;2023-05-03T23:51:32;101737.76;;;5.44;51.37
40794;BME280;26502;51.886;15.604;2023-05-03T23:56:39;101734.26;;;5.47;51.54
